April 26, 2015
Temp
 
63.3 °F
 
Dew Pt.
 
46.9 °F
 
Humidity
 
55%
 
Pressure
 
1012.4 hPa 
  steady
Wind
 
0.0 mph 
    WSW
Rain
 
0.00 in 
  0.00 in/hr
UV index
 
0.0  
 
Solar rad.
 
0 W/m²
 
Tonight

Mostly Clear
Mostly
Clear
Monday

Sunny
Sunny
Lo 54 °F Hi 90 °F
Statistics - 4/26/2015
Max Temp 79.6 °F  3:55 pm
Min Temp 48.9 °F  6:50 am
Max Dew Pt 55.2 °F  9:25 am
Min Dew Pt 46.0 °F  6:10 am
Max Pressure 1016.2 hPa  10:35 am
Min Pressure 1011.7 hPa  6:40 pm
Max Wind 13 mph  3:30 pm
Max UV 6.6   1:00 pm
Max Solar 963 W/m²  2:00 pm
Max Rainfall Rate —   —
Total Precipitation —   
Current Temp 63.3 °F  9:00 pm
Temp 24hr ago 56.4 °F  9:00 pm
Difference +6.9 °F  
Temp Rate -2.8 °F/hr  
Pressure Rate +0.3 hPa/hr  
time temp dew pt pressure uv solar wind wind speed rainfall rate
00:00 52.6 °F 49.1 °F 1012.8 hPa  ESE 4 mph   
00:05 52.6 °F 49.1 °F 1012.8 hPa  E 5 mph   
00:10 52.6 °F 49.1 °F 1012.8 hPa  E 5 mph   
00:15 52.6 °F 49.1 °F 1012.8 hPa  E 5 mph   
00:20 52.5 °F 49.0 °F 1012.9 hPa  E 3 mph   
00:25 52.4 °F 49.0 °F 1012.9 hPa  SE 1 mph   
00:30 52.3 °F 48.9 °F 1012.9 hPa  ENE 3 mph   
00:35 52.1 °F 48.7 °F 1013.1 hPa  Calm    
00:40 52.0 °F 48.6 °F 1012.9 hPa  ENE 1 mph   
00:45 51.9 °F 48.5 °F 1012.9 hPa  ENE 3 mph   
00:50 51.8 °F 48.4 °F 1012.8 hPa  ENE 2 mph   
00:55 51.7 °F 48.3 °F 1012.8 hPa  ENE 1 mph   
01:00 51.6 °F 48.2 °F 1012.8 hPa  Calm    
01:05 51.5 °F 48.1 °F 1012.8 hPa  E 1 mph   
01:10 51.4 °F 48.0 °F 1013.0 hPa  ENE 2 mph   
01:15 51.4 °F 48.0 °F 1012.9 hPa  E 1 mph   
01:20 51.3 °F 47.9 °F 1013.0 hPa  E 5 mph   
01:25 51.2 °F 47.8 °F 1012.9 hPa  ESE 5 mph   
01:30 51.2 °F 47.8 °F 1012.9 hPa  E 3 mph   
01:35 51.0 °F 47.6 °F 1013.0 hPa  SE 2 mph   
01:40 51.0 °F 47.6 °F 1012.9 hPa  E 6 mph   
01:45 50.9 °F 47.5 °F 1012.9 hPa  ENE 5 mph   
01:50 50.8 °F 47.4 °F 1012.9 hPa  E 6 mph   
01:55 50.7 °F 47.3 °F 1013.0 hPa  ENE 7 mph   
02:00 50.6 °F 47.2 °F 1013.0 hPa  E 5 mph   
02:05 50.6 °F 47.2 °F 1012.9 hPa  E 5 mph   
02:10 50.5 °F 47.4 °F 1012.9 hPa  E 5 mph   
02:15 50.5 °F 47.4 °F 1012.8 hPa  E 1 mph   
02:20 50.6 °F 47.5 °F 1012.7 hPa  ENE 1 mph   
02:25 50.6 °F 47.5 °F 1012.7 hPa  Calm    
02:30 50.5 °F 47.4 °F 1012.7 hPa  Calm    
02:35 50.5 °F 47.4 °F 1012.7 hPa  Calm    
02:40 50.4 °F 47.3 °F 1012.9 hPa  Calm    
02:45 50.3 °F 47.2 °F 1012.9 hPa  Calm    
02:50 50.1 °F 47.0 °F 1013.0 hPa  NE 1 mph   
02:55 50.1 °F 47.0 °F 1013.0 hPa  SW 2 mph   
03:00 50.0 °F 46.9 °F 1013.1 hPa  SW 1 mph   
03:05 49.9 °F 46.8 °F 1013.3 hPa  ESE 1 mph   
03:10 49.8 °F 46.7 °F 1013.3 hPa  E 3 mph   
03:15 49.7 °F 46.6 °F 1013.4 hPa  ENE 4 mph   
03:20 49.6 °F 46.5 °F 1013.4 hPa  E 6 mph   
03:25 49.6 °F 46.5 °F 1013.3 hPa  E 7 mph   
03:30 49.5 °F 46.4 °F 1013.3 hPa  E 5 mph   
03:35 49.4 °F 46.3 °F 1013.3 hPa  E 7 mph   
03:40 49.4 °F 46.3 °F 1013.3 hPa  E 5 mph   
03:45 49.4 °F 46.3 °F 1013.3 hPa  E 6 mph   
03:50 49.4 °F 46.3 °F 1013.2 hPa  E 7 mph   
03:55 49.4 °F 46.3 °F 1013.2 hPa  E 6 mph   
04:00 49.4 °F 46.3 °F 1013.2 hPa  ENE 2 mph   
04:05 49.4 °F 46.3 °F 1013.3 hPa  E 2 mph   
04:10 49.4 °F 46.3 °F 1013.4 hPa  E 5 mph   
04:15 49.4 °F 46.3 °F 1013.4 hPa  E 6 mph   
04:20 49.5 °F 46.4 °F 1013.5 hPa  ENE 3 mph   
04:25 49.5 °F 46.4 °F 1013.7 hPa  E 1 mph   
04:30 49.6 °F 46.5 °F 1013.7 hPa  SE 1 mph   
04:35 49.7 °F 46.6 °F 1013.7 hPa  Calm    
04:40 49.7 °F 46.6 °F 1013.8 hPa  Calm    
04:45 49.7 °F 46.6 °F 1013.9 hPa  Calm    
04:50 49.7 °F 46.6 °F 1013.8 hPa  Calm    
04:55 49.6 °F 46.5 °F 1013.7 hPa  NNE 1 mph   
05:00 49.6 °F 46.5 °F 1013.8 hPa  Calm    
05:05 49.5 °F 46.4 °F 1013.7 hPa  Calm    
05:10 49.6 °F 46.8 °F 1013.6 hPa  Calm    
05:15 49.6 °F 46.8 °F 1013.7 hPa  Calm    
05:20 49.6 °F 46.8 °F 1013.7 hPa  Calm    
05:25 49.6 °F 46.8 °F 1013.9 hPa  ENE 3 mph   
05:30 49.5 °F 46.7 °F 1014.0 hPa  ENE 4 mph   
05:35 49.5 °F 46.7 °F 1014.1 hPa  Calm    
05:40 49.4 °F 46.6 °F 1014.2 hPa  Calm    
05:45 49.4 °F 46.6 °F 1014.2 hPa  Calm    
05:50 49.3 °F 46.2 °F 1014.2 hPa  Calm    
05:55 49.2 °F 46.1 °F 1014.3 hPa  Calm    
06:00 49.2 °F 46.1 °F 1014.3 hPa  Calm    
06:05 49.1 °F 46.0 °F 1014.3 hPa  Calm    
06:10 49.1 °F 46.0 °F 1014.3 hPa  Calm    
06:15 49.0 °F 46.2 °F 1014.4 hPa  Calm    
06:20 49.0 °F 46.2 °F 1014.5 hPa 5 W/m²  Calm    
06:25 49.0 °F 46.2 °F 1014.5 hPa 8 W/m²  Calm    
06:30 49.0 °F 46.2 °F 1014.5 hPa 12 W/m²  Calm    
06:35 49.0 °F 46.2 °F 1014.5 hPa 17 W/m²  Calm    
06:40 49.0 °F 46.2 °F 1014.6 hPa 20 W/m²  Calm    
06:45 49.0 °F 46.2 °F 1014.6 hPa 22 W/m²  Calm    
06:50 49.1 °F 46.3 °F 1014.7 hPa 25 W/m²  Calm    
06:55 49.2 °F 46.4 °F 1014.7 hPa 29 W/m²  Calm    
07:00 49.2 °F 46.4 °F 1014.7 hPa 31 W/m²  Calm    
07:05 49.3 °F 46.5 °F 1014.8 hPa 33 W/m²  Calm    
07:10 49.4 °F 46.6 °F 1014.9 hPa 36 W/m²  E 1 mph   
07:15 49.4 °F 46.6 °F 1015.0 hPa 48 W/m²  Calm    
07:20 49.6 °F 46.8 °F 1015.1 hPa 130 W/m²  Calm    
07:25 49.8 °F 47.0 °F 1015.1 hPa 171 W/m²  ESE 1 mph   
07:30 50.2 °F 47.7 °F 1015.1 hPa 180 W/m²  E 1 mph   
07:35 50.5 °F 48.0 °F 1015.2 hPa 192 W/m²  Calm    
07:40 50.9 °F 48.4 °F 1015.3 hPa 210 W/m²  Calm    
07:45 51.2 °F 48.7 °F 1015.3 hPa 221 W/m²  Calm    
07:50 51.5 °F 49.0 °F 1015.4 hPa 228 W/m²  Calm    
07:55 52.0 °F 49.5 °F 1015.5 hPa 148 W/m²  Calm    
08:00 52.4 °F 49.8 °F 1015.6 hPa 97 W/m²  Calm    
08:05 52.8 °F 50.2 °F 1015.6 hPa 123 W/m²  Calm    
08:10 53.2 °F 50.6 °F 1015.6 hPa 158 W/m²  Calm    
08:15 53.4 °F 50.8 °F 1015.6 hPa 339 W/m²  Calm    
08:20 53.9 °F 51.3 °F 1015.5 hPa 352 W/m²  Calm    
08:25 54.4 °F 51.8 °F 1015.6 hPa 351 W/m²  Calm    
08:30 54.9 °F 52.3 °F 1015.5 hPa 375 W/m²  SSE 2 mph   
08:35 55.2 °F 52.6 °F 1015.6 hPa 388 W/m²  S 3 mph   
08:40 55.7 °F 53.1 °F 1015.6 hPa 418 W/m²  WSW 2 mph   
08:45 55.8 °F 53.2 °F 1015.7 hPa 440 W/m²  S 2 mph   
08:50 56.2 °F 53.6 °F 1015.7 hPa 0.5 458 W/m²  SSW 1 mph   
08:55 56.5 °F 53.9 °F 1015.7 hPa 0.6 471 W/m²  E 2 mph   
09:00 56.8 °F 53.9 °F 1015.6 hPa 0.8 462 W/m²  SSE 1 mph   
09:05 57.2 °F 54.3 °F 1015.7 hPa 1.0 514 W/m²  SW 3 mph   
09:10 57.6 °F 54.4 °F 1015.7 hPa 1.1 535 W/m²  SSW 2 mph   
09:15 58.0 °F 54.8 °F 1015.7 hPa 1.3 555 W/m²  WSW 3 mph   
09:20 58.3 °F 54.8 °F 1015.8 hPa 1.3 536 W/m²  SSW 4 mph   
09:25 58.7 °F 55.2 °F 1015.8 hPa 1.7 614 W/m²  SW 3 mph   
09:30 59.0 °F 55.1 °F 1015.8 hPa 1.7 615 W/m²  SW 2 mph   
09:35 59.0 °F 54.5 °F 1015.8 hPa 1.0 556 W/m²  SW 2 mph   
09:40 59.1 °F 54.3 °F 1015.9 hPa 2.0 623 W/m²  SE 3 mph   
09:45 59.8 °F 55.0 °F 1015.9 hPa 0.7 553 W/m²  SW 3 mph   
09:50 60.1 °F 54.6 °F 1016.0 hPa 0.8 164 W/m²  SSW 2 mph   
09:55 60.3 °F 54.4 °F 1016.2 hPa 2.6 508 W/m²  ENE 2 mph   
10:00 60.7 °F 54.8 °F 1016.0 hPa 2.8 707 W/m²  ESE 2 mph   
10:05 61.2 °F 54.6 °F 1016.0 hPa 2.3 659 W/m²  SW 4 mph   
10:10 61.8 °F 54.9 °F 1016.0 hPa 3.1 722 W/m²  ESE 3 mph   
10:15 62.5 °F 54.8 °F 1016.1 hPa 3.3 742 W/m²  WSW 4 mph   
10:20 63.0 °F 54.9 °F 1016.0 hPa 3.4 746 W/m²  SW 5 mph   
10:25 63.5 °F 54.3 °F 1016.1 hPa 2.0 711 W/m²  E 5 mph   
10:30 63.7 °F 54.1 °F 1016.2 hPa 3.7 632 W/m²  SW 5 mph   
10:35 64.0 °F 54.0 °F 1016.1 hPa 3.9 763 W/m²  ESE 5 mph   
10:40 64.2 °F 53.8 °F 1016.1 hPa 4.0 770 W/m²  WSW 5 mph   
10:45 64.4 °F 53.6 °F 1016.0 hPa 4.3 783 W/m²  SSW 4 mph   
10:50 64.9 °F 54.1 °F 1016.1 hPa 4.5 801 W/m²  SSW 4 mph   
10:55 65.3 °F 54.1 °F 1016.0 hPa 4.6 813 W/m²  SSW 5 mph   
11:00 65.8 °F 54.5 °F 1016.0 hPa 4.8 814 W/m²  WSW 6 mph   
11:05 66.1 °F 54.4 °F 1016.0 hPa 4.8 823 W/m²  E 5 mph   
11:10 66.5 °F 54.4 °F 1016.0 hPa 5.0 825 W/m²  WSW 4 mph   
11:15 66.8 °F 54.2 °F 1016.0 hPa 5.2 842 W/m²  SW 4 mph   
11:20 67.2 °F 53.7 °F 1015.9 hPa 5.4 852 W/m²  WSW 6 mph   
11:25 67.6 °F 54.5 °F 1015.7 hPa 5.5 873 W/m²  E 3 mph   
11:30 68.0 °F 54.0 °F 1015.6 hPa 5.7 878 W/m²  E 5 mph   
11:35 68.5 °F 54.1 °F 1015.4 hPa 5.6 875 W/m²  ESE 3 mph   
11:40 68.8 °F 53.9 °F 1015.4 hPa 5.7 845 W/m²  SW 3 mph   
11:45 69.1 °F 53.7 °F 1015.3 hPa 5.8 852 W/m²  WSW 12 mph   
11:50 69.3 °F 53.9 °F 1015.4 hPa 5.5 825 W/m²  SW 8 mph   
11:55 69.5 °F 54.1 °F 1015.4 hPa 5.7 865 W/m²  WSW 6 mph   
12:00 69.8 °F 53.9 °F 1015.3 hPa 5.7 863 W/m²  SW 7 mph   
12:05 70.0 °F 54.1 °F 1015.2 hPa 5.5 849 W/m²  SW 7 mph   
12:10 70.3 °F 53.4 °F 1015.0 hPa 6.4 879 W/m²  WSW 5 mph   
12:15 70.6 °F 53.1 °F 1015.1 hPa 6.3 947 W/m²  SSW 7 mph   
12:20 70.8 °F 53.3 °F 1014.9 hPa 6.5 943 W/m²  SW 7 mph   
12:25 71.0 °F 54.0 °F 1014.8 hPa 6.5 937 W/m²  SW 8 mph   
12:30 71.2 °F 53.7 °F 1014.8 hPa 6.2 933 W/m²  SSW 10 mph   
12:35 71.5 °F 54.0 °F 1014.6 hPa 6.6 918 W/m²  SW 9 mph   
12:40 71.9 °F 53.8 °F 1014.7 hPa 6.6 929 W/m²  SW 7 mph   
12:45 72.3 °F 53.7 °F 1014.6 hPa 6.6 929 W/m²  WSW 12 mph   
12:50 72.7 °F 54.0 °F 1014.5 hPa 6.5 931 W/m²  W 7 mph   
12:55 73.0 °F 53.2 °F 1014.5 hPa 6.6 931 W/m²  W 10 mph   
13:00 73.0 °F 53.2 °F 1014.3 hPa 6.6 930 W/m²  W 5 mph   
13:05 73.4 °F 53.6 °F 1014.3 hPa 6.5 928 W/m²  SW 6 mph   
13:10 74.0 °F 53.6 °F 1014.4 hPa 6.4 928 W/m²  WSW 8 mph   
13:15 74.5 °F 54.1 °F 1014.3 hPa 6.4 926 W/m²  W 8 mph   
13:20 75.1 °F 54.1 °F 1014.2 hPa 6.3 923 W/m²  SW 8 mph   
13:25 75.4 °F 53.7 °F 1014.1 hPa 6.2 918 W/m²  SSW 7 mph   
13:30 75.8 °F 54.1 °F 1014.1 hPa 6.1 916 W/m²  SW 8 mph   
13:35 76.3 °F 54.0 °F 1014.0 hPa 6.1 918 W/m²  SSW 7 mph   
13:40 76.9 °F 53.3 °F 1014.1 hPa 5.9 919 W/m²  SW 10 mph   
13:45 77.1 °F 53.5 °F 1014.0 hPa 5.8 905 W/m²  SW 7 mph   
13:50 77.6 °F 53.3 °F 1014.0 hPa 5.5 869 W/m²  SW 7 mph   
13:55 77.9 °F 54.2 °F 1014.0 hPa 2.6 893 W/m²  SW 9 mph   
14:00 78.2 °F 55.1 °F 1014.1 hPa 5.2 904 W/m²  WSW 7 mph   
14:05 78.0 °F 54.9 °F 1014.0 hPa 4.7 803 W/m²  SSE 8 mph   
14:10 77.9 °F 54.2 °F 1014.0 hPa 5.1 860 W/m²  SW 10 mph   
14:15 77.9 °F 54.8 °F 1014.0 hPa 5.1 835 W/m²  W 12 mph   
14:20 77.9 °F 54.2 °F 1014.0 hPa 5.0 860 W/m²  S 10 mph   
14:25 77.8 °F 54.1 °F 1013.9 hPa 4.8 842 W/m²  W 9 mph   
14:30 78.0 °F 52.4 °F 1013.9 hPa 4.7 816 W/m²  SW 9 mph   
14:35 78.4 °F 52.7 °F 1013.8 hPa 4.4 809 W/m²  W 10 mph   
14:40 78.7 °F 53.7 °F 1013.9 hPa 4.3 814 W/m²  SW 12 mph   
14:45 78.3 °F 53.9 °F 1013.9 hPa 4.3 804 W/m²  SW 13 mph   
14:50 78.4 °F 54.7 °F 1013.9 hPa 4.3 816 W/m²  SW 10 mph   
14:55 78.3 °F 53.3 °F 1013.8 hPa 4.1 791 W/m²  SSW 10 mph   
15:00 78.3 °F 52.6 °F 1013.7 hPa 4.0 787 W/m²  SSW 6 mph   
15:05 78.7 °F 53.7 °F 1013.5 hPa 3.9 787 W/m²  SW 3 mph   
15:10 78.7 °F 52.3 °F 1013.4 hPa 3.8 774 W/m²  WNW 8 mph   
15:15 78.9 °F 51.8 °F 1013.5 hPa 3.5 772 W/m²  W 10 mph   
15:20 79.1 °F 51.3 °F 1013.4 hPa 3.4 734 W/m²  W 9 mph   
15:25 79.3 °F 51.5 °F 1013.3 hPa 3.1 732 W/m²  SW 7 mph   
15:30 79.4 °F 50.8 °F 1013.3 hPa 3.1 702 W/m²  W 13 mph   
15:35 79.3 °F 50.7 °F 1013.3 hPa 2.9 717 W/m²  WSW 7 mph   
15:40 79.6 °F 50.3 °F 1013.2 hPa 2.8 706 W/m²  SW 9 mph   
15:45 79.5 °F 50.2 °F 1013.0 hPa 2.6 697 W/m²  WSW 9 mph   
15:50 79.5 °F 50.2 °F 1012.9 hPa 2.4 656 W/m²  SSW 6 mph   
15:55 79.4 °F 49.3 °F 1012.8 hPa 2.3 637 W/m²  SW 10 mph   
16:00 79.2 °F 49.9 °F 1012.8 hPa 2.1 638 W/m²  S 8 mph   
16:05 78.9 °F 49.7 °F 1012.9 hPa 2.0 629 W/m²  SW 11 mph   
16:10 78.8 °F 49.6 °F 1012.8 hPa 1.8 623 W/m²  SW 10 mph   
16:15 79.1 °F 49.8 °F 1012.8 hPa 1.7 605 W/m²  SW 11 mph   
16:20 79.3 °F 50.0 °F 1012.6 hPa 1.5 582 W/m²  SSW 11 mph   
16:25 79.0 °F 49.0 °F 1012.5 hPa 1.3 570 W/m²  SSW 9 mph   
16:30 78.7 °F 49.5 °F 1012.4 hPa 1.2 561 W/m²  SW 9 mph   
16:35 78.7 °F 49.5 °F 1012.3 hPa 1.1 542 W/m²  SW 8 mph   
16:40 78.6 °F 49.4 °F 1012.4 hPa 1.0 538 W/m²  WSW 11 mph   
16:45 78.5 °F 49.3 °F 1012.4 hPa 0.7 483 W/m²  SSW 7 mph   
16:50 78.1 °F 48.2 °F 1012.4 hPa 0.5 423 W/m²  SW 8 mph   
16:55 77.6 °F 48.5 °F 1012.4 hPa 424 W/m²  W 8 mph   
17:00 77.3 °F 49.0 °F 1012.4 hPa 393 W/m²  SSW 7 mph   
17:05 77.1 °F 48.1 °F 1012.5 hPa 367 W/m²  SW 10 mph   
17:10 76.6 °F 47.6 °F 1012.5 hPa 389 W/m²  SSW 12 mph   
17:15 76.4 °F 47.5 °F 1012.4 hPa 359 W/m²  SSE 6 mph   
17:20 76.1 °F 47.2 °F 1012.2 hPa 332 W/m²  S 7 mph   
17:25 76.2 °F 48.0 °F 1012.2 hPa 312 W/m²  WSW 1 mph   
17:30 76.4 °F 47.5 °F 1012.2 hPa 319 W/m²  WSW 5 mph   
17:35 76.5 °F 47.5 °F 1012.0 hPa 309 W/m²  WSW 5 mph   
17:40 76.6 °F 46.9 °F 1011.9 hPa 278 W/m²  WSW 5 mph   
17:45 76.5 °F 46.8 °F 1011.9 hPa 280 W/m²  SSW 6 mph   
17:50 76.6 °F 46.9 °F 1012.0 hPa 266 W/m²  SSW 3 mph   
17:55 76.8 °F 47.1 °F 1011.9 hPa 241 W/m²  Calm    
18:00 76.9 °F 47.1 °F 1012.0 hPa 239 W/m²  Calm    
18:05 76.9 °F 47.1 °F 1012.0 hPa 207 W/m²  SSW 6 mph   
18:10 76.9 °F 46.4 °F 1011.9 hPa 204 W/m²  Calm    
18:15 77.0 °F 47.2 °F 1012.0 hPa 172 W/m²  Calm    
18:20 77.0 °F 46.5 °F 1011.9 hPa 116 W/m²  Calm    
18:25 76.9 °F 47.1 °F 1011.8 hPa 117 W/m²  Calm    
18:30 76.7 °F 47.0 °F 1011.8 hPa 130 W/m²  Calm    
18:35 76.4 °F 46.7 °F 1011.8 hPa 108 W/m²  Calm    
18:40 76.0 °F 46.4 °F 1011.8 hPa 57 W/m²  Calm    
18:45 75.5 °F 47.4 °F 1011.8 hPa 39 W/m²  Calm    
18:50 74.9 °F 46.9 °F 1011.8 hPa 34 W/m²  Calm    
18:55 74.4 °F 47.1 °F 1011.8 hPa 26 W/m²  Calm    
19:00 74.0 °F 46.8 °F 1011.8 hPa 21 W/m²  Calm    
19:05 73.5 °F 47.0 °F 1011.9 hPa 21 W/m²  Calm    
19:10 73.1 °F 47.3 °F 1011.8 hPa 18 W/m²  Calm    
19:15 72.6 °F 47.5 °F 1011.8 hPa 13 W/m²  Calm    
19:20 72.0 °F 47.6 °F 1011.9 hPa 11 W/m²  Calm    
19:25 71.3 °F 47.0 °F 1011.9 hPa 7 W/m²  Calm    
19:30 70.8 °F 47.2 °F 1012.0 hPa 3 W/m²  Calm    
19:35 70.2 °F 47.3 °F 1011.9 hPa  Calm    
19:40 69.6 °F 46.7 °F 1012.0 hPa  Calm    
19:45 69.0 °F 46.8 °F 1012.1 hPa  Calm    
19:50 68.4 °F 46.8 °F 1012.1 hPa  Calm    
19:55 67.9 °F 46.3 °F 1012.2 hPa  Calm    
20:00 67.4 °F 46.5 °F 1012.2 hPa  Calm    
20:05 66.9 °F 46.6 °F 1012.3 hPa  Calm    
20:10 66.5 °F 46.7 °F 1012.4 hPa  Calm    
20:15 66.0 °F 46.3 °F 1012.3 hPa  Calm    
20:20 65.7 °F 46.5 °F 1012.4 hPa  Calm    
20:25 65.4 °F 46.8 °F 1012.4 hPa  Calm    
20:30 65.1 °F 47.0 °F 1012.5 hPa  Calm    
20:35 64.7 °F 46.7 °F 1012.4 hPa  Calm    
20:40 64.2 °F 46.7 °F 1012.4 hPa  Calm    
20:45 63.9 °F 46.4 °F 1012.5 hPa  Calm    
20:50 63.7 °F 46.7 °F 1012.5 hPa  Calm    
20:55 63.5 °F 46.6 °F 1012.5 hPa  Calm    
21:00 63.3 °F 46.9 °F 1012.5 hPa  Calm